createdAt,value
2023-02-03T00:00:21.636Z,996.134
2023-02-03T00:01:21.420Z,996.072
2023-02-03T00:02:21.273Z,996.229
2023-02-03T00:03:21.281Z,996.219
2023-02-03T00:04:21.090Z,996.130
2023-02-03T00:05:21.977Z,996.125
2023-02-03T00:06:21.746Z,996.152
2023-02-03T00:07:21.480Z,996.204
2023-02-03T00:08:21.356Z,996.068
2023-02-03T00:09:22.014Z,996.043
2023-02-03T00:10:21.974Z,995.948
2023-02-03T00:11:21.822Z,996.077
2023-02-03T00:12:21.621Z,996.169
2023-02-03T00:13:21.378Z,996.011
2023-02-03T00:14:21.253Z,996.047
2023-02-03T00:15:21.975Z,996.100
2023-02-03T00:16:21.846Z,995.851
2023-02-03T00:17:21.564Z,996.172
2023-02-03T00:18:21.204Z,996.249
2023-02-03T00:19:21.951Z,996.194
2023-02-03T00:20:21.636Z,996.156
2023-02-03T00:21:21.748Z,996.269
2023-02-03T00:22:21.668Z,996.140
2023-02-03T00:23:21.577Z,996.210
2023-02-03T00:24:21.329Z,996.189
2023-02-03T00:25:21.391Z,996.114
2023-02-03T00:26:21.108Z,996.156
2023-02-03T00:27:21.859Z,995.880
2023-02-03T00:28:21.814Z,996.251
2023-02-03T00:29:21.442Z,996.093
2023-02-03T00:30:21.363Z,996.239
2023-02-03T00:31:21.096Z,996.303
2023-02-03T00:32:21.480Z,996.242
2023-02-03T00:33:21.459Z,996.100
2023-02-03T00:34:21.428Z,996.097
2023-02-03T00:35:21.268Z,996.133
2023-02-03T00:36:22.368Z,996.092
2023-02-03T00:37:21.111Z,996.072
2023-02-03T00:38:21.222Z,996.282
2023-02-03T00:39:21.062Z,996.169
2023-02-03T00:40:21.723Z,996.168
2023-02-03T00:41:21.820Z,996.093
2023-02-03T00:42:21.675Z,996.260
2023-02-03T00:43:21.466Z,996.158
2023-02-03T00:44:21.210Z,996.094
2023-02-03T00:45:21.081Z,996.212
2023-02-03T00:46:21.328Z,995.881
2023-02-03T00:47:21.268Z,996.264
2023-02-03T00:48:21.699Z,996.200
2023-02-03T00:49:21.497Z,996.196
2023-02-03T00:50:21.223Z,996.169
2023-02-03T00:51:21.197Z,996.160
2023-02-03T00:52:22.007Z,995.964
2023-02-03T00:53:21.772Z,996.015
2023-02-03T00:54:22.937Z,996.005
2023-02-03T00:55:23.108Z,996.025
2023-02-03T00:56:21.023Z,996.088
2023-02-03T00:57:22.377Z,996.067
2023-02-03T00:58:21.226Z,996.098
2023-02-03T00:59:21.913Z,996.137
2023-02-03T01:00:21.687Z,995.809
2023-02-03T01:01:21.831Z,996.126
2023-02-03T01:02:21.816Z,996.166
2023-02-03T01:03:21.892Z,996.160
2023-02-03T01:04:21.904Z,996.103
2023-02-03T01:05:21.757Z,995.852
2023-02-03T01:06:21.637Z,995.937
2023-02-03T01:07:21.705Z,996.021
2023-02-03T01:08:21.566Z,995.975
2023-02-03T01:09:21.651Z,996.240
2023-02-03T01:10:21.385Z,996.180
2023-02-03T01:11:21.420Z,995.827
2023-02-03T01:12:21.162Z,995.983
2023-02-03T01:13:22.056Z,996.177
2023-02-03T01:14:21.151Z,996.156
2023-02-03T01:15:21.939Z,996.034
2023-02-03T01:16:21.365Z,996.167
2023-02-03T01:17:21.619Z,996.220
2023-02-03T01:18:21.772Z,996.214
2023-02-03T01:19:21.533Z,996.035
2023-02-03T01:20:21.696Z,996.096
2023-02-03T01:21:21.628Z,996.242
2023-02-03T01:22:21.568Z,996.096
2023-02-03T01:23:21.348Z,996.019
2023-02-03T01:24:21.129Z,996.137
2023-02-03T01:25:21.868Z,996.149
2023-02-03T01:26:21.568Z,996.034
2023-02-03T01:27:21.519Z,995.967
2023-02-03T01:28:21.408Z,995.969
2023-02-03T01:29:21.204Z,996.174
2023-02-03T01:30:21.945Z,996.141
2023-02-03T01:31:21.280Z,995.997
2023-02-03T01:32:21.838Z,996.068
2023-02-03T01:33:21.599Z,996.033
2023-02-03T01:34:21.635Z,995.953
2023-02-03T01:35:21.810Z,995.965
2023-02-03T01:36:21.783Z,995.960
2023-02-03T01:37:21.451Z,996.102
2023-02-03T01:38:21.335Z,996.039
2023-02-03T01:39:21.066Z,995.889
2023-02-03T01:40:22.015Z,996.089
2023-02-03T01:41:21.835Z,995.995
2023-02-03T01:42:21.694Z,996.122
2023-02-03T01:43:21.578Z,996.017
2023-02-03T01:44:21.632Z,995.851
2023-02-03T01:45:21.507Z,995.816
2023-02-03T01:46:21.549Z,995.836
2023-02-03T01:47:21.413Z,995.988
2023-02-03T01:48:21.214Z,995.939
2023-02-03T01:49:21.120Z,995.915
2023-02-03T01:50:21.968Z,995.692
2023-02-03T01:51:21.915Z,996.015
2023-02-03T01:52:21.541Z,995.902
2023-02-03T01:53:21.444Z,995.771
2023-02-03T01:54:21.263Z,995.802
2023-02-03T01:55:21.126Z,995.787
2023-02-03T01:56:21.890Z,995.614
2023-02-03T01:57:21.027Z,995.644
2023-02-03T01:58:21.617Z,995.479
2023-02-03T01:59:21.415Z,995.740
2023-02-03T02:00:21.997Z,995.789
2023-02-03T02:01:21.373Z,995.281
2023-02-03T02:02:21.152Z,995.483
2023-02-03T02:03:21.396Z,995.625
2023-02-03T02:04:21.179Z,995.566
2023-02-03T02:05:21.979Z,995.579
2023-02-03T02:06:21.801Z,995.623
2023-02-03T02:07:21.740Z,995.452
2023-02-03T02:08:21.507Z,995.425
2023-02-03T02:09:21.519Z,995.298
2023-02-03T02:10:21.389Z,995.508
2023-02-03T02:11:21.087Z,995.500
2023-02-03T02:12:21.888Z,995.485
2023-02-03T02:13:21.556Z,995.443
2023-02-03T02:14:21.319Z,995.570
2023-02-03T02:15:21.312Z,995.537
2023-02-03T02:16:21.579Z,995.509
2023-02-03T02:17:21.952Z,995.484
2023-02-03T02:18:21.792Z,995.476
2023-02-03T02:19:21.919Z,995.515
2023-02-03T02:20:21.199Z,995.460
2023-02-03T02:21:21.295Z,995.533
2023-02-03T02:22:21.231Z,995.467
2023-02-03T02:23:21.465Z,995.498
2023-02-03T02:24:21.605Z,995.348
2023-02-03T02:25:21.626Z,995.450
2023-02-03T02:26:21.694Z,995.408
2023-02-03T02:27:21.823Z,995.154
2023-02-03T02:28:21.327Z,995.323
2023-02-03T02:29:21.571Z,995.368
2023-02-03T02:30:21.871Z,995.372
2023-02-03T02:31:21.515Z,995.224
2023-02-03T02:33:21.927Z,995.037
2023-02-03T02:34:21.759Z,995.333
2023-02-03T02:35:21.767Z,995.273
2023-02-03T02:36:21.843Z,995.179
2023-02-03T02:37:21.727Z,995.276
2023-02-03T02:38:21.547Z,995.455
2023-02-03T02:39:21.356Z,995.432
2023-02-03T02:40:21.234Z,995.448
2023-02-03T02:41:21.029Z,995.544
2023-02-03T02:42:21.860Z,995.282
2023-02-03T02:43:21.622Z,995.358
2023-02-03T02:44:21.493Z,995.476
2023-02-03T02:45:21.537Z,995.628
2023-02-03T02:46:21.597Z,995.454
2023-02-03T02:47:21.666Z,995.581
2023-02-03T02:48:21.556Z,995.456
2023-02-03T02:49:21.561Z,995.306
2023-02-03T02:50:21.684Z,995.648
2023-02-03T02:51:21.671Z,995.544
2023-02-03T02:52:22.742Z,995.388
2023-02-03T02:53:21.607Z,995.415
2023-02-03T02:54:21.700Z,995.377
2023-02-03T02:55:21.577Z,995.371
2023-02-03T02:56:21.742Z,995.348
2023-02-03T02:57:21.795Z,995.434
2023-02-03T02:58:21.596Z,995.433
2023-02-03T02:59:21.468Z,995.435
2023-02-03T03:00:21.663Z,995.479
2023-02-03T03:01:21.826Z,995.210
2023-02-03T03:02:21.475Z,995.325
2023-02-03T03:03:21.892Z,995.540
2023-02-03T03:04:21.772Z,995.556
2023-02-03T03:05:21.067Z,995.592
2023-02-03T03:06:21.156Z,995.617
2023-02-03T03:07:21.129Z,995.455
2023-02-03T03:08:21.097Z,995.667
2023-02-03T03:09:21.057Z,995.344
2023-02-03T03:10:21.356Z,995.696
2023-02-03T03:11:21.617Z,995.527
2023-02-03T03:12:21.508Z,995.390
2023-02-03T03:13:21.575Z,995.511
2023-02-03T03:14:21.618Z,995.555
2023-02-03T03:15:21.505Z,995.621
2023-02-03T03:16:21.899Z,995.564
2023-02-03T03:17:22.042Z,995.601
2023-02-03T03:18:21.323Z,995.672
2023-02-03T03:19:21.297Z,995.525
2023-02-03T03:20:21.328Z,995.640
2023-02-03T03:21:21.419Z,995.595
2023-02-03T03:22:21.524Z,995.365
2023-02-03T03:23:21.270Z,995.555
2023-02-03T03:24:21.229Z,995.568
2023-02-03T03:25:21.044Z,995.370
2023-02-03T03:26:21.112Z,995.611
2023-02-03T03:27:21.919Z,995.629
2023-02-03T03:28:21.075Z,995.365
2023-02-03T03:29:21.917Z,995.484
2023-02-03T03:30:21.966Z,995.451
2023-02-03T03:31:21.235Z,995.838
2023-02-03T03:32:21.703Z,995.792
2023-02-03T03:33:21.487Z,995.900
2023-02-03T03:34:21.333Z,995.658
2023-02-03T03:35:21.315Z,995.734
2023-02-03T03:36:21.199Z,995.755
2023-02-03T03:37:21.067Z,995.510
2023-02-03T03:38:22.007Z,995.758
2023-02-03T03:39:21.888Z,995.903
2023-02-03T03:40:21.796Z,996.019
2023-02-03T03:41:21.867Z,995.974
2023-02-03T03:42:21.755Z,995.909
2023-02-03T03:43:21.948Z,995.702
2023-02-03T03:44:21.872Z,995.976
2023-02-03T03:45:21.989Z,996.019
2023-02-03T03:46:21.980Z,995.918
2023-02-03T03:47:21.932Z,996.090
2023-02-03T03:48:21.179Z,996.066
2023-02-03T03:49:21.990Z,995.888
2023-02-03T03:50:21.911Z,995.885
2023-02-03T03:51:21.930Z,995.846
2023-02-03T03:52:21.876Z,995.888
2023-02-03T03:53:21.582Z,995.733
2023-02-03T03:54:21.740Z,995.661
2023-02-03T03:55:21.484Z,995.834
2023-02-03T03:56:21.309Z,995.721
2023-02-03T03:57:21.232Z,995.724
2023-02-03T03:58:21.968Z,995.773
2023-02-03T03:59:21.772Z,995.760
2023-02-03T04:00:21.783Z,995.604
2023-02-03T04:01:21.779Z,995.651
2023-02-03T04:02:21.487Z,995.562
2023-02-03T04:03:21.574Z,995.514
2023-02-03T04:04:21.593Z,995.525
2023-02-03T04:05:21.353Z,995.563
2023-02-03T04:06:21.294Z,995.540
2023-02-03T04:07:21.174Z,995.693
2023-02-03T04:08:21.984Z,995.631
2023-02-03T04:09:21.768Z,995.638
2023-02-03T04:10:21.836Z,995.657
2023-02-03T04:11:21.733Z,995.552
2023-02-03T04:12:21.559Z,995.493
2023-02-03T04:13:21.463Z,995.443
2023-02-03T04:14:21.396Z,995.471
2023-02-03T04:15:21.405Z,995.506
2023-02-03T04:16:22.831Z,995.388
2023-02-03T04:17:22.416Z,995.322
2023-02-03T04:18:22.646Z,995.366
2023-02-03T04:19:21.113Z,995.421
2023-02-03T04:20:21.971Z,995.414
2023-02-03T04:21:21.111Z,995.417
2023-02-03T04:22:21.987Z,995.369
2023-02-03T04:23:21.078Z,995.438
2023-02-03T04:24:21.095Z,995.468
2023-02-03T04:25:22.063Z,995.513
2023-02-03T04:26:21.079Z,995.102
2023-02-03T04:27:21.078Z,995.074
2023-02-03T04:28:21.102Z,995.185
2023-02-03T04:29:21.130Z,995.229
2023-02-03T04:30:21.058Z,995.256
2023-02-03T04:31:21.204Z,995.351
2023-02-03T04:32:21.331Z,995.217
2023-02-03T04:33:21.332Z,995.238
2023-02-03T04:34:21.303Z,995.167
2023-02-03T04:35:21.369Z,995.095
2023-02-03T04:36:21.252Z,995.139
2023-02-03T04:37:22.008Z,995.179
2023-02-03T04:38:21.144Z,994.909
2023-02-03T04:39:21.273Z,995.141
2023-02-03T04:40:21.326Z,995.076
2023-02-03T04:41:21.276Z,994.949
2023-02-03T04:42:21.168Z,995.086
2023-02-03T04:43:21.040Z,995.024
2023-02-03T04:44:21.064Z,995.082
2023-02-03T04:45:22.055Z,995.061
2023-02-03T04:46:21.658Z,995.027
2023-02-03T04:47:21.384Z,994.950
2023-02-03T04:48:21.384Z,994.804
2023-02-03T04:49:21.128Z,994.877
2023-02-03T04:50:21.167Z,994.871
2023-02-03T04:51:21.352Z,995.089
2023-02-03T04:52:21.328Z,995.073
2023-02-03T04:53:21.154Z,995.210
2023-02-03T04:54:21.167Z,995.065
2023-02-03T04:55:21.997Z,995.173
2023-02-03T04:56:21.914Z,995.157
2023-02-03T04:57:21.959Z,994.997
2023-02-03T04:58:21.761Z,995.056
2023-02-03T04:59:21.911Z,995.128
2023-02-03T05:00:21.828Z,995.256
2023-02-03T05:01:21.098Z,995.371
2023-02-03T05:02:22.095Z,995.203
2023-02-03T05:03:21.493Z,995.267
2023-02-03T05:04:21.044Z,995.304
2023-02-03T05:05:21.774Z,995.175
2023-02-03T05:06:21.660Z,995.044
2023-02-03T05:07:21.776Z,995.038
2023-02-03T05:08:21.795Z,995.020
2023-02-03T05:09:21.832Z,995.135
2023-02-03T05:10:21.613Z,995.129
2023-02-03T05:11:21.486Z,995.240
2023-02-03T05:12:21.408Z,995.191
2023-02-03T05:13:21.135Z,995.122
2023-02-03T05:14:21.235Z,995.246
2023-02-03T05:15:21.030Z,995.268
2023-02-03T05:16:22.012Z,995.269
2023-02-03T05:17:21.240Z,995.332
2023-02-03T05:18:22.030Z,995.127
2023-02-03T05:19:21.702Z,995.318
2023-02-03T05:20:21.607Z,995.120
2023-02-03T05:21:21.562Z,995.152
2023-02-03T05:22:21.331Z,995.429
2023-02-03T05:23:21.096Z,995.609
2023-02-03T05:24:21.897Z,995.371
2023-02-03T05:25:21.793Z,995.483
2023-02-03T05:26:21.922Z,995.377
2023-02-03T05:27:21.999Z,995.327
2023-02-03T05:28:21.907Z,995.408
2023-02-03T05:29:21.710Z,995.520
2023-02-03T05:30:21.773Z,995.551
2023-02-03T05:31:22.056Z,995.073
2023-02-03T05:32:21.256Z,995.372
2023-02-03T05:33:21.063Z,995.369
2023-02-03T05:34:21.909Z,995.284
2023-02-03T05:35:21.450Z,995.496
2023-02-03T05:36:21.421Z,995.521
2023-02-03T05:37:21.402Z,995.299
2023-02-03T05:38:21.317Z,995.375
2023-02-03T05:39:21.203Z,995.573
2023-02-03T05:40:21.200Z,995.522
2023-02-03T05:41:21.221Z,995.486
2023-02-03T05:42:21.013Z,995.446
2023-02-03T05:43:21.823Z,995.376
2023-02-03T05:44:21.490Z,995.313
2023-02-03T05:45:21.470Z,995.388
2023-02-03T05:46:21.574Z,995.452
2023-02-03T05:47:21.366Z,995.504
2023-02-03T05:48:21.098Z,995.420
2023-02-03T05:49:21.878Z,995.362
2023-02-03T05:50:21.908Z,995.365
2023-02-03T05:51:21.717Z,995.441
2023-02-03T05:52:21.509Z,995.066
2023-02-03T05:53:21.308Z,995.010
2023-02-03T05:54:21.439Z,995.216
2023-02-03T05:55:21.393Z,995.164
2023-02-03T05:56:21.137Z,995.411
2023-02-03T05:57:21.892Z,995.285
2023-02-03T05:58:21.714Z,995.129
2023-02-03T05:59:21.615Z,995.000
2023-02-03T06:00:21.549Z,995.077
2023-02-03T06:01:21.524Z,994.826
2023-02-03T06:02:21.433Z,995.138
2023-02-03T06:03:21.526Z,994.988
2023-02-03T06:04:21.716Z,995.067
2023-02-03T06:05:21.081Z,995.084
2023-02-03T06:06:21.355Z,994.806
2023-02-03T06:07:21.748Z,995.033
2023-02-03T06:08:21.972Z,995.002
2023-02-03T06:09:21.189Z,995.028
2023-02-03T06:10:21.313Z,994.992
2023-02-03T06:11:21.497Z,994.893
2023-02-03T06:12:21.640Z,994.756
2023-02-03T06:13:21.835Z,994.864
2023-02-03T06:14:21.151Z,994.766
2023-02-03T06:15:21.099Z,994.693
2023-02-03T06:16:21.161Z,994.696
2023-02-03T06:17:21.387Z,994.617
2023-02-03T06:18:21.822Z,994.703
2023-02-03T06:19:21.729Z,994.739
2023-02-03T06:20:21.602Z,994.759
2023-02-03T06:21:21.778Z,994.803
2023-02-03T06:22:21.751Z,994.700
2023-02-03T06:23:21.787Z,994.805
2023-02-03T06:24:21.776Z,994.837
2023-02-03T06:25:21.703Z,994.735
2023-02-03T06:26:21.636Z,994.737
2023-02-03T06:27:21.700Z,994.883
2023-02-03T06:28:21.124Z,994.710
2023-02-03T06:29:21.900Z,994.670
2023-02-03T06:30:21.979Z,994.616
2023-02-03T06:31:21.555Z,994.605
2023-02-03T06:32:21.814Z,994.633
2023-02-03T06:33:21.713Z,994.564
2023-02-03T06:34:21.915Z,994.488
2023-02-03T06:35:21.986Z,994.689
2023-02-03T06:36:21.967Z,994.665
2023-02-03T06:37:21.247Z,994.557
2023-02-03T06:38:21.599Z,994.554
2023-02-03T06:39:21.691Z,994.675
2023-02-03T06:40:22.044Z,994.828
2023-02-03T06:41:21.264Z,994.659
2023-02-03T06:42:21.253Z,994.850
2023-02-03T06:43:21.417Z,994.995
2023-02-03T06:44:21.535Z,994.749
2023-02-03T06:45:21.647Z,994.884
2023-02-03T06:46:21.811Z,995.030
2023-02-03T06:47:21.827Z,995.069
2023-02-03T06:48:21.793Z,994.960
2023-02-03T06:49:21.672Z,994.999
2023-02-03T06:50:21.735Z,994.834
2023-02-03T06:51:21.863Z,994.712
2023-02-03T06:52:21.992Z,994.553
2023-02-03T06:53:21.970Z,994.800
2023-02-03T06:54:21.873Z,994.531
2023-02-03T06:55:21.638Z,994.616
2023-02-03T06:56:21.565Z,994.797
2023-02-03T06:57:21.569Z,994.703
2023-02-03T06:58:21.435Z,994.551
2023-02-03T06:59:21.187Z,994.763
2023-02-03T07:00:21.223Z,994.859
2023-02-03T07:01:21.056Z,994.871
2023-02-03T07:02:21.093Z,994.933
2023-02-03T07:03:21.106Z,994.870
2023-02-03T07:04:22.016Z,994.936
2023-02-03T07:05:21.878Z,994.867
2023-02-03T07:06:21.590Z,994.737
2023-02-03T07:07:21.316Z,994.574
2023-02-03T07:08:21.168Z,994.667
2023-02-03T07:09:21.951Z,994.906
2023-02-03T07:10:21.725Z,994.906
2023-02-03T07:11:21.468Z,994.873
2023-02-03T07:12:21.238Z,995.022
2023-02-03T07:13:21.920Z,994.881
2023-02-03T07:14:21.557Z,994.895
2023-02-03T07:15:21.609Z,994.778
2023-02-03T07:16:21.513Z,995.052
2023-02-03T07:17:21.381Z,995.045
2023-02-03T07:18:35.933Z,994.941
2023-02-03T07:19:21.442Z,994.875
2023-02-03T07:20:21.180Z,994.668
2023-02-03T07:21:21.884Z,994.843
2023-02-03T07:22:21.564Z,994.691
2023-02-03T07:23:21.206Z,994.596
2023-02-03T07:24:21.935Z,994.697
2023-02-03T07:25:21.702Z,994.807
2023-02-03T07:26:21.568Z,994.566
2023-02-03T07:27:21.279Z,994.992
2023-02-03T07:28:21.043Z,995.077
2023-02-03T07:29:21.659Z,995.098
2023-02-03T07:30:21.455Z,995.026
2023-02-03T07:31:21.350Z,994.868
2023-02-03T07:32:21.671Z,994.832
2023-02-03T07:33:21.503Z,994.912
2023-02-03T07:34:21.343Z,994.766
2023-02-03T07:35:21.066Z,994.833
2023-02-03T07:36:21.773Z,994.535
2023-02-03T07:37:21.964Z,994.780
2023-02-03T07:38:21.692Z,994.882
2023-02-03T07:39:21.408Z,994.900
2023-02-03T07:40:21.117Z,994.913
2023-02-03T07:41:22.008Z,994.957
2023-02-03T07:42:21.811Z,994.984
2023-02-03T07:43:21.627Z,994.811
2023-02-03T07:44:21.696Z,994.666
2023-02-03T07:45:21.411Z,994.822
2023-02-03T07:46:21.117Z,994.611
2023-02-03T07:47:21.115Z,995.092
2023-02-03T07:48:21.900Z,994.902
2023-02-03T07:49:21.832Z,994.899
2023-02-03T07:50:21.576Z,995.176
2023-02-03T07:51:21.551Z,995.013
2023-02-03T07:52:22.015Z,994.963
2023-02-03T07:53:21.744Z,995.010
2023-02-03T07:54:21.627Z,994.804
2023-02-03T07:55:21.362Z,995.054
2023-02-03T07:56:21.997Z,995.039
2023-02-03T07:57:21.668Z,994.791
2023-02-03T07:58:21.383Z,994.950
2023-02-03T07:59:21.092Z,995.250
2023-02-03T08:00:21.871Z,995.068
2023-02-03T08:01:21.863Z,994.910
2023-02-03T08:02:21.169Z,995.106
2023-02-03T08:03:21.096Z,995.172
2023-02-03T08:04:21.263Z,994.859
2023-02-03T08:05:21.164Z,995.063
2023-02-03T08:06:21.058Z,994.932
2023-02-03T08:07:21.847Z,994.882
2023-02-03T08:08:21.584Z,995.051
2023-02-03T08:09:21.248Z,994.931
2023-02-03T08:10:21.942Z,995.002
2023-02-03T08:11:21.863Z,994.871
2023-02-03T08:12:21.524Z,995.077
2023-02-03T08:13:21.339Z,994.862
2023-02-03T08:14:21.131Z,995.231
2023-02-03T08:15:21.772Z,995.059
2023-02-03T08:16:21.723Z,995.115
2023-02-03T08:17:21.417Z,994.998
2023-02-03T08:18:21.278Z,995.134
2023-02-03T08:19:21.235Z,994.798
2023-02-03T08:20:21.991Z,995.057
2023-02-03T08:21:21.665Z,994.974
2023-02-03T08:22:21.388Z,995.004
2023-02-03T08:23:21.129Z,995.069
2023-02-03T08:24:21.091Z,995.039
2023-02-03T08:25:22.686Z,995.193
2023-02-03T08:26:21.554Z,995.097
2023-02-03T08:27:21.150Z,995.194
2023-02-03T08:28:21.086Z,994.975
2023-02-03T08:29:21.811Z,995.028
2023-02-03T08:30:21.530Z,995.238
2023-02-03T08:31:21.318Z,995.109
2023-02-03T08:32:21.611Z,995.257
2023-02-03T08:33:21.351Z,994.955
2023-02-03T08:34:21.175Z,995.206
2023-02-03T08:35:21.148Z,995.178
2023-02-03T08:36:21.109Z,995.245
2023-02-03T08:37:21.002Z,995.106
2023-02-03T08:38:21.725Z,995.332
2023-02-03T08:39:21.520Z,995.242
2023-02-03T08:40:21.544Z,995.263
2023-02-03T08:41:21.522Z,995.279
2023-02-03T08:42:21.360Z,995.145
2023-02-03T08:43:21.340Z,995.053
2023-02-03T08:44:21.109Z,994.997
2023-02-03T08:45:21.929Z,995.086
2023-02-03T08:46:21.032Z,995.075
2023-02-03T08:47:21.240Z,995.022
2023-02-03T08:48:21.058Z,994.935
2023-02-03T08:49:21.791Z,994.740
2023-02-03T08:50:21.635Z,995.043
2023-02-03T08:51:21.373Z,995.085
2023-02-03T08:52:21.579Z,994.970
2023-02-03T08:53:21.267Z,995.092
2023-02-03T08:54:21.042Z,995.165
2023-02-03T08:55:21.795Z,995.211
2023-02-03T08:56:21.804Z,994.958
2023-02-03T08:57:21.481Z,995.011
2023-02-03T08:58:21.182Z,994.811
2023-02-03T08:59:21.827Z,994.896
2023-02-03T09:00:21.656Z,994.882
2023-02-03T09:01:21.603Z,995.016
2023-02-03T09:02:21.457Z,994.896
2023-02-03T09:03:21.255Z,994.811
2023-02-03T09:04:22.011Z,994.499
2023-02-03T09:05:21.915Z,994.884
2023-02-03T09:06:23.447Z,994.821
2023-02-03T09:07:21.769Z,994.900
2023-02-03T09:08:21.353Z,994.953
2023-02-03T09:09:21.172Z,994.860
2023-02-03T09:10:21.525Z,994.674
2023-02-03T09:11:21.593Z,994.957
2023-02-03T09:12:21.904Z,994.585
2023-02-03T09:13:21.607Z,994.632
2023-02-03T09:14:21.680Z,994.820
2023-02-03T09:15:21.621Z,994.873
2023-02-03T09:16:21.641Z,994.761
2023-02-03T09:17:21.840Z,994.751
2023-02-03T09:18:21.631Z,994.730
2023-02-03T09:19:21.458Z,994.785
2023-02-03T09:20:21.673Z,994.866
2023-02-03T09:21:32.213Z,994.830
2023-02-03T09:22:21.738Z,994.919
2023-02-03T09:23:21.803Z,994.820
2023-02-03T09:24:21.455Z,994.691
2023-02-03T09:25:21.391Z,994.770
2023-02-03T09:26:21.699Z,994.639
2023-02-03T09:27:21.604Z,994.790
2023-02-03T09:28:21.563Z,994.734
2023-02-03T09:29:21.287Z,994.602
2023-02-03T09:30:21.168Z,994.749
2023-02-03T09:31:21.170Z,994.569
2023-02-03T09:32:21.080Z,994.687
2023-02-03T09:33:21.900Z,994.612
2023-02-03T09:34:21.800Z,994.635
2023-02-03T09:35:21.678Z,994.697
2023-02-03T09:36:21.530Z,994.705
2023-02-03T09:37:21.608Z,994.669
2023-02-03T09:38:21.528Z,994.697
2023-02-03T09:39:21.378Z,994.376
2023-02-03T09:40:21.317Z,994.553
2023-02-03T09:42:24.156Z,994.196
2023-02-03T09:43:24.033Z,994.675
2023-02-03T09:44:24.829Z,994.603
2023-02-03T09:45:24.895Z,994.436
2023-02-03T09:46:24.968Z,994.552
2023-02-03T09:47:24.791Z,994.241
2023-02-03T09:48:24.497Z,994.223
2023-02-03T09:49:24.256Z,994.350
2023-02-03T09:50:24.232Z,994.197
2023-02-03T09:51:24.080Z,994.566
2023-02-03T09:52:24.809Z,994.432
2023-02-03T09:53:24.554Z,994.315
2023-02-03T09:54:24.357Z,994.223
2023-02-03T09:55:24.087Z,994.304
2023-02-03T09:56:30.591Z,994.226
2023-02-03T09:57:24.471Z,994.399
2023-02-03T09:58:24.217Z,994.289
2023-02-03T09:59:24.881Z,994.226
2023-02-03T10:00:24.704Z,994.212
2023-02-03T10:01:24.747Z,994.264
2023-02-03T10:02:24.754Z,994.263
2023-02-03T10:03:24.719Z,994.140
2023-02-03T10:04:24.663Z,994.283
2023-02-03T10:05:24.358Z,994.332
2023-02-03T10:06:25.009Z,994.013
2023-02-03T10:07:24.800Z,994.213
2023-02-03T10:08:24.636Z,994.356
2023-02-03T10:09:24.491Z,994.365
2023-02-03T10:10:24.268Z,994.362
2023-02-03T10:11:24.124Z,994.302
2023-02-03T10:12:24.852Z,994.252
2023-02-03T10:13:24.568Z,994.119
2023-02-03T10:14:24.263Z,994.260
2023-02-03T10:15:24.180Z,994.057
2023-02-03T10:16:24.900Z,994.141
2023-02-03T10:17:24.304Z,994.323
2023-02-03T10:18:24.208Z,994.133
2023-02-03T10:19:24.872Z,993.912
2023-02-03T10:20:24.835Z,994.250
2023-02-03T10:21:24.659Z,994.035
2023-02-03T10:22:24.549Z,994.212
2023-02-03T10:23:24.400Z,993.844
2023-02-03T10:24:24.172Z,994.306
2023-02-03T10:25:24.119Z,994.136
2023-02-03T10:26:24.236Z,994.059
2023-02-03T10:27:24.054Z,994.058
2023-02-03T10:28:24.035Z,994.067
2023-02-03T10:29:24.837Z,994.117
2023-02-03T10:30:24.818Z,994.037
2023-02-03T10:31:24.168Z,993.833
2023-02-03T10:32:24.236Z,994.143
2023-02-03T10:33:24.976Z,993.855
2023-02-03T10:34:24.860Z,994.090
2023-02-03T10:35:24.046Z,993.989
2023-02-03T10:36:25.114Z,993.840
2023-02-03T10:37:24.605Z,993.923
2023-02-03T10:38:24.408Z,993.789
2023-02-03T10:39:24.305Z,993.696
2023-02-03T10:40:24.452Z,993.508
2023-02-03T10:41:24.338Z,993.207
2023-02-03T10:42:24.177Z,993.725
2023-02-03T10:43:24.705Z,993.789
2023-02-03T10:44:24.884Z,993.883
2023-02-03T10:45:24.884Z,992.935
2023-02-03T10:46:24.145Z,993.881
2023-02-03T10:47:24.446Z,993.740
2023-02-03T10:48:24.207Z,993.647
2023-02-03T10:49:24.937Z,993.832
2023-02-03T10:50:24.846Z,993.817
2023-02-03T10:51:24.542Z,993.635
2023-02-03T10:52:24.067Z,993.424
2023-02-03T10:53:24.898Z,993.940
2023-02-03T10:54:24.663Z,993.614
2023-02-03T10:55:24.516Z,993.887
2023-02-03T10:56:24.319Z,993.661
2023-02-03T10:57:24.297Z,993.791
2023-02-03T10:58:24.034Z,993.454
2023-02-03T10:59:24.845Z,993.610
2023-02-03T11:00:24.819Z,993.625
2023-02-03T11:01:24.741Z,993.353
2023-02-03T11:02:24.130Z,993.642
2023-02-03T11:03:24.195Z,993.385
2023-02-03T11:04:24.055Z,993.726
2023-02-03T11:05:24.749Z,993.599
2023-02-03T11:06:24.852Z,993.416
2023-02-03T11:07:25.034Z,993.461
2023-02-03T11:08:25.848Z,992.962
2023-02-03T11:09:24.402Z,993.141
2023-02-03T11:10:24.765Z,993.370
2023-02-03T11:11:24.877Z,993.354
2023-02-03T11:12:24.511Z,993.094
2023-02-03T11:13:25.214Z,993.313
2023-02-03T11:14:25.267Z,993.197
2023-02-03T11:15:24.352Z,992.600
2023-02-03T11:16:24.158Z,992.870
2023-02-03T11:17:24.916Z,993.115
2023-02-03T11:18:25.090Z,992.883
2023-02-03T11:19:24.623Z,993.123
2023-02-03T11:20:24.315Z,992.950
2023-02-03T11:21:24.056Z,993.116
2023-02-03T11:22:24.095Z,993.207
2023-02-03T11:23:24.392Z,992.555
2023-02-03T11:24:24.235Z,993.016
2023-02-03T11:25:24.914Z,992.920
2023-02-03T11:26:24.584Z,993.019
2023-02-03T11:27:24.423Z,993.033
2023-02-03T11:28:24.538Z,993.178
2023-02-03T11:29:24.267Z,992.958
2023-02-03T11:30:24.376Z,992.970
2023-02-03T11:31:24.670Z,992.888
2023-02-03T11:32:24.899Z,992.867
2023-02-03T11:33:24.588Z,993.067
2023-02-03T11:34:24.340Z,993.087
2023-02-03T11:35:24.450Z,993.143
2023-02-03T11:36:24.272Z,993.143
2023-02-03T11:37:24.964Z,992.950
2023-02-03T11:38:24.665Z,992.521
2023-02-03T11:39:24.438Z,992.835
2023-02-03T11:40:24.297Z,992.656
2023-02-03T11:41:24.919Z,992.666
2023-02-03T11:42:24.679Z,992.780
2023-02-03T11:43:24.294Z,992.883
2023-02-03T11:44:24.122Z,992.938
2023-02-03T11:45:24.778Z,992.710
2023-02-03T11:46:24.655Z,992.221
2023-02-03T11:47:24.188Z,992.644
2023-02-03T11:48:24.965Z,992.507
2023-02-03T11:49:24.991Z,993.124
2023-02-03T11:50:24.895Z,992.952
2023-02-03T11:51:24.566Z,992.965
2023-02-03T11:52:24.329Z,992.407
2023-02-03T11:53:24.278Z,993.138
2023-02-03T11:54:24.968Z,992.986
2023-02-03T11:55:24.851Z,993.127
2023-02-03T11:56:24.500Z,992.344
2023-02-03T11:57:24.237Z,992.792
2023-02-03T11:58:24.979Z,992.928
2023-02-03T11:59:24.847Z,992.954
2023-02-03T12:00:24.744Z,992.960
2023-02-03T12:01:24.607Z,992.336
2023-02-03T12:02:24.610Z,992.960
2023-02-03T12:03:24.793Z,992.924
2023-02-03T12:04:24.594Z,992.903
2023-02-03T12:05:24.782Z,993.156
2023-02-03T12:06:24.572Z,993.157
2023-02-03T12:07:24.478Z,993.161